Time;durP1;ratioP1;P1;durP2;ratioP2;P2;SDS_P1;SDS_P2;PMS_P1;PMS_P2;Temp;Humidity;BMP_temperature;BMP_pressure;BME280_temperature;BME280_humidity;BME280_pressure;Samples;Min_cycle;Max_cycle;Signal;HPM_P1;HPM_P2
2023/11/21 00:00:12;;;;;;;4.10;2.30;;;;;;;-2.11;100.00;99520.30;109426;1251;66875;-60
2023/11/21 00:02:40;;;;;;;3.60;1.80;;;;;;;-2.12;100.00;99529.90;109362;1252;73360;-59
2023/11/21 00:05:09;;;;;;;4.90;2.30;;;;;;;-2.12;100.00;99527.87;109373;1250;59010;-61
2023/11/21 00:07:37;;;;;;;3.60;2.10;;;;;;;-2.13;100.00;99527.44;109390;1251;59251;-60
2023/11/21 00:10:06;;;;;;;3.70;2.30;;;;;;;-2.14;100.00;99533.81;109433;1250;74739;-60
2023/11/21 00:12:34;;;;;;;4.10;2.40;;;;;;;-2.15;100.00;99541.35;109375;1251;66947;-60
2023/11/21 00:15:02;;;;;;;3.90;2.10;;;;;;;-2.16;100.00;99556.25;109437;1251;71363;-60
2023/11/21 00:17:30;;;;;;;4.80;2.00;;;;;;;-2.18;100.00;99573.46;109423;1250;60982;-60
2023/11/21 00:19:57;;;;;;;5.40;2.20;;;;;;;-2.20;100.00;99577.84;109463;1250;60140;-60
2023/11/21 00:22:25;;;;;;;4.30;2.70;;;;;;;-2.22;100.00;99580.68;109420;1250;74891;-64
2023/11/21 00:24:53;;;;;;;3.20;2.00;;;;;;;-2.23;100.00;99588.09;109425;1251;66792;-60
2023/11/21 00:27:20;;;;;;;3.60;2.00;;;;;;;-2.23;100.00;99593.68;109425;1251;72702;-60
2023/11/21 00:29:48;;;;;;;3.80;2.30;;;;;;;-2.22;100.00;99602.15;109414;1251;59650;-59
2023/11/21 00:32:15;;;;;;;3.40;1.70;;;;;;;-2.22;100.00;99609.48;109414;1250;59281;-62
2023/11/21 00:34:43;;;;;;;6.20;2.80;;;;;;;-2.21;100.00;99617.72;109395;1251;74669;-60
2023/11/21 00:37:11;;;;;;;4.80;2.70;;;;;;;-2.18;100.00;99611.77;109442;1251;67004;-60
2023/11/21 00:39:39;;;;;;;4.70;2.40;;;;;;;-2.18;100.00;99607.16;109376;1251;72393;-60
2023/11/21 00:42:08;;;;;;;9.40;3.70;;;;;;;-2.19;100.00;99608.77;109378;1252;59769;-60
2023/11/21 00:44:38;;;;;;;4.70;2.60;;;;;;;-2.23;100.00;99608.54;109254;1253;59013;-59
2023/11/21 00:47:05;;;;;;;5.10;2.70;;;;;;;-2.17;100.00;99607.25;109270;1252;73455;-59
2023/11/21 00:49:33;;;;;;;4.70;3.00;;;;;;;-2.15;100.00;99607.95;109480;1252;65494;-60
2023/11/21 00:52:02;;;;;;;4.30;2.30;;;;;;;-2.14;100.00;99602.27;109317;1253;72756;-59
2023/11/21 00:54:30;;;;;;;5.30;2.50;;;;;;;-2.17;100.00;99602.95;109452;1250;60988;-60
2023/11/21 00:57:01;;;;;;;4.60;2.90;;;;;;;-2.19;100.00;99613.55;109383;1251;59063;-60
2023/11/21 00:59:28;;;;;;;4.70;2.50;;;;;;;-2.20;100.00;99610.33;109441;1252;73406;-60
2023/11/21 01:01:56;;;;;;;4.50;2.70;;;;;;;-2.19;100.00;99606.40;109246;1252;65423;-60
2023/11/21 01:04:25;;;;;;;5.00;2.60;;;;;;;-2.22;100.00;99602.86;109412;1251;72700;-60
2023/11/21 01:06:52;;;;;;;4.70;2.60;;;;;;;-2.24;100.00;99603.65;109265;1252;60947;-60
2023/11/21 01:09:20;;;;;;;5.10;2.80;;;;;;;-2.26;100.00;99607.09;109438;1251;60114;-60
2023/11/21 01:11:48;;;;;;;5.50;2.50;;;;;;;-2.28;100.00;99610.44;109450;1252;73438;-61
2023/11/21 01:14:17;;;;;;;7.00;3.70;;;;;;;-2.31;100.00;99615.08;109447;1252;66068;-60
2023/11/21 01:16:45;;;;;;;5.10;2.40;;;;;;;-2.32;100.00;99620.42;109439;1253;71174;-60
2023/11/21 01:19:13;;;;;;;7.40;2.90;;;;;;;-2.32;100.00;99622.66;109448;1251;58947;-61
2023/11/21 01:21:41;;;;;;;5.30;2.90;;;;;;;-2.33;100.00;99625.94;109437;1252;59448;-61
2023/11/21 01:24:08;;;;;;;5.30;3.00;;;;;;;-2.34;100.00;99630.09;109449;1252;75351;-60
2023/11/21 01:26:36;;;;;;;8.30;3.00;;;;;;;-2.33;100.00;99634.83;109487;1252;65975;-59
2023/11/21 01:29:04;;;;;;;5.00;2.70;;;;;;;-2.35;100.00;99634.31;109424;1252;72839;-60
2023/11/21 01:31:32;;;;;;;6.20;2.50;;;;;;;-2.38;100.00;99637.94;109441;1251;59378;-60
2023/11/21 01:34:00;;;;;;;8.00;3.80;;;;;;;-2.40;100.00;99640.81;109349;1252;60082;-60
2023/11/21 01:36:35;;;;;;;5.70;3.00;;;;;;;-2.41;100.00;99637.83;109406;1251;74750;-60
2023/11/21 01:39:07;;;;;;;5.40;2.80;;;;;;;-2.40;100.00;99637.91;109295;1251;66979;-60
2023/11/21 01:41:35;;;;;;;4.70;2.90;;;;;;;-2.40;100.00;99641.13;109466;1251;73038;-61
2023/11/21 01:44:03;;;;;;;4.90;2.70;;;;;;;-2.41;100.00;99644.43;109508;1251;60882;-60
2023/11/21 01:46:31;;;;;;;5.00;2.60;;;;;;;-2.42;100.00;99642.30;109465;1251;58913;-61
2023/11/21 01:48:59;;;;;;;3.80;2.40;;;;;;;-2.45;100.00;99641.17;109495;1251;74630;-60
2023/11/21 01:51:26;;;;;;;4.20;2.40;;;;;;;-2.46;100.00;99642.27;109484;1251;67038;-60
2023/11/21 01:53:55;;;;;;;7.50;2.40;;;;;;;-2.48;100.00;99644.10;109302;1251;72725;-60
2023/11/21 01:56:23;;;;;;;5.20;2.40;;;;;;;-2.50;100.00;99649.34;109461;1251;60954;-60
2023/11/21 01:58:51;;;;;;;4.30;2.30;;;;;;;-2.50;100.00;99651.73;109304;1251;58916;-61
2023/11/21 02:01:19;;;;;;;5.00;2.30;;;;;;;-2.49;100.00;99652.36;109314;1251;74625;-60
2023/11/21 02:03:46;;;;;;;6.00;3.80;;;;;;;-2.51;100.00;99653.98;109417;1251;67005;-60
2023/11/21 02:06:14;;;;;;;4.20;2.70;;;;;;;-2.52;100.00;99660.08;109479;1251;71459;-60
2023/11/21 02:08:44;;;;;;;3.30;1.80;;;;;;;-2.55;100.00;99657.52;109469;1251;59570;-61
2023/11/21 02:11:19;;;;;;;5.00;2.80;;;;;;;-2.56;100.00;99661.50;109509;1251;58874;-60
2023/11/21 02:13:50;;;;;;;4.40;2.70;;;;;;;-2.58;100.00;99659.79;109343;1251;74724;-60
2023/11/21 02:16:17;;;;;;;6.00;3.10;;;;;;;-2.60;100.00;99664.09;109526;1251;66781;-61
2023/11/21 02:18:54;;;;;;;4.40;2.90;;;;;;;-2.63;100.00;99666.97;109508;1251;72747;-61
2023/11/21 02:21:22;;;;;;;3.80;2.40;;;;;;;-2.62;100.00;99669.50;109271;1251;59383;-60
2023/11/21 02:23:51;;;;;;;3.80;2.20;;;;;;;-2.61;100.00;99670.59;109340;1251;60149;-60
2023/11/21 02:26:20;;;;;;;4.10;2.60;;;;;;;-2.59;100.00;99672.48;109362;1251;73726;-60
2023/11/21 02:28:47;;;;;;;5.90;2.70;;;;;;;-2.58;100.00;99671.03;109497;1251;67330;-60
2023/11/21 02:31:16;;;;;;;3.90;2.20;;;;;;;-2.59;100.00;99667.55;109437;1251;72644;-63
2023/11/21 02:33:44;;;;;;;5.00;2.70;;;;;;;-2.59;100.00;99669.62;109450;1252;58960;-60
2023/11/21 02:36:11;;;;;;;5.20;3.00;;;;;;;-2.59;100.00;99674.38;109455;1254;60177;-60
2023/11/21 02:38:40;;;;;;;3.80;2.40;;;;;;;-2.57;100.00;99679.33;109496;1251;72667;-61
2023/11/21 02:41:08;;;;;;;4.50;2.00;;;;;;;-2.52;100.00;99685.11;109442;1251;65628;-63
2023/11/21 02:43:36;;;;;;;4.40;2.40;;;;;;;-2.52;100.00;99691.54;109511;1251;72693;-60
2023/11/21 02:46:03;;;;;;;6.00;2.80;;;;;;;-2.53;100.00;99699.95;109451;1252;59692;-61
2023/11/21 02:48:31;;;;;;;6.10;2.50;;;;;;;-2.55;100.00;99709.73;109527;1250;60002;-60
2023/11/21 02:50:58;;;;;;;4.70;1.90;;;;;;;-2.56;100.00;99711.58;109561;1250;74846;-60
2023/11/21 02:53:26;;;;;;;6.60;2.30;;;;;;;-2.59;100.00;99713.99;109425;1251;65795;-61
2023/11/21 02:55:54;;;;;;;4.30;2.30;;;;;;;-2.63;100.00;99714.83;109503;1251;71459;-60
2023/11/21 02:58:21;;;;;;;4.60;2.20;;;;;;;-2.65;100.00;99714.92;109475;1256;60118;-60
2023/11/21 03:00:49;;;;;;;3.90;2.20;;;;;;;-2.68;100.00;99716.67;109354;1251;60082;-60
2023/11/21 03:03:16;;;;;;;5.60;2.50;;;;;;;-2.74;100.00;99717.44;109417;1251;74759;-60
2023/11/21 03:05:44;;;;;;;4.20;2.20;;;;;;;-2.78;100.00;99715.91;109503;1251;67209;-60
2023/11/21 03:08:12;;;;;;;4.50;2.50;;;;;;;-2.81;100.00;99723.79;109492;1251;72642;-60
2023/11/21 03:10:39;;;;;;;3.50;1.90;;;;;;;-2.86;100.00;99731.58;109498;1251;59653;-60
2023/11/21 03:13:08;;;;;;;3.40;1.70;;;;;;;-2.91;100.00;99732.65;109451;1251;58906;-62
2023/11/21 03:15:35;;;;;;;3.50;1.70;;;;;;;-2.96;100.00;99738.79;109493;1251;74696;-60
2023/11/21 03:18:05;;;;;;;4.00;2.10;;;;;;;-3.01;100.00;99742.05;109505;1251;65547;-60
2023/11/21 03:20:33;;;;;;;4.90;2.20;;;;;;;-3.04;100.00;99739.17;109464;1251;72717;-61
2023/11/21 03:23:00;;;;;;;4.40;1.90;;;;;;;-3.06;100.00;99746.11;109283;1251;59295;-61
2023/11/21 03:25:28;;;;;;;3.30;1.90;;;;;;;-3.07;100.00;99749.92;109486;1251;59519;-60
2023/11/21 03:27:56;;;;;;;3.80;2.00;;;;;;;-3.10;100.00;99755.91;109475;1251;73429;-61
2023/11/21 03:30:23;;;;;;;3.40;1.90;;;;;;;-3.12;100.00;99754.86;109375;1251;66920;-60
2023/11/21 03:32:51;;;;;;;3.10;1.60;;;;;;;-3.12;100.00;99749.80;109481;1251;72661;-61
2023/11/21 03:35:20;;;;;;;5.60;2.30;;;;;;;-3.13;100.00;99755.45;109454;1251;59338;-61
2023/11/21 03:37:48;;;;;;;4.50;2.60;;;;;;;-3.13;100.00;99757.47;109518;1251;60080;-60
2023/11/21 03:40:16;;;;;;;3.10;1.70;;;;;;;-3.12;100.00;99757.92;109533;1251;73749;-61
2023/11/21 03:42:43;;;;;;;3.90;1.70;;;;;;;-3.11;100.00;99763.63;109565;1251;67199;-60
2023/11/21 03:45:12;;;;;;;3.30;1.90;;;;;;;-3.13;100.00;99766.53;109287;1251;72755;-60
2023/11/21 03:47:41;;;;;;;3.60;1.70;;;;;;;-3.16;100.00;99775.02;109437;1251;59726;-60
2023/11/21 03:50:09;;;;;;;5.30;2.60;;;;;;;-3.18;100.00;99773.66;109482;1251;60115;-60
2023/11/21 03:52:37;;;;;;;4.90;2.50;;;;;;;-3.20;100.00;99776.64;109526;1251;76912;-60
2023/11/21 03:55:05;;;;;;;3.80;2.20;;;;;;;-3.19;100.00;99769.41;109486;1251;66273;-62
2023/11/21 03:57:33;;;;;;;3.50;1.90;;;;;;;-3.16;100.00;99767.95;109546;1252;73040;-59
2023/11/21 04:00:00;;;;;;;3.70;2.00;;;;;;;-3.16;100.00;99767.09;109498;1254;61452;-59
2023/11/21 04:02:39;;;;;;;5.40;2.50;;;;;;;-3.15;100.00;99770.75;109558;1251;60521;-59
2023/11/21 04:05:07;;;;;;;3.30;1.90;;;;;;;-3.15;100.00;99771.90;109456;1251;73459;-59
2023/11/21 04:07:37;;;;;;;5.00;2.30;;;;;;;-3.16;100.00;99772.52;109475;1251;66079;-59
2023/11/21 04:10:08;;;;;;;5.60;3.20;;;;;;;-3.20;100.00;99772.88;109500;1251;72577;-59
2023/11/21 04:12:36;;;;;;;6.10;2.90;;;;;;;-3.19;100.00;99772.70;109432;1252;60158;-61
2023/11/21 04:15:04;;;;;;;6.10;2.80;;;;;;;-3.20;100.00;99776.80;109469;1251;58965;-59
2023/11/21 04:17:31;;;;;;;5.10;2.30;;;;;;;-3.22;100.00;99777.95;109458;1251;74690;-60
2023/11/21 04:19:59;;;;;;;5.20;2.60;;;;;;;-3.21;100.00;99783.86;109495;1251;67091;-59
2023/11/21 04:22:27;;;;;;;4.20;2.40;;;;;;;-3.21;100.00;99787.77;109483;1251;72854;-59
2023/11/21 04:24:55;;;;;;;4.30;2.20;;;;;;;-3.22;100.00;99789.70;109437;1253;60921;-59
2023/11/21 04:27:23;;;;;;;5.60;2.50;;;;;;;-3.24;100.00;99792.71;109480;1251;59034;-59
2023/11/21 04:29:50;;;;;;;4.00;2.40;;;;;;;-3.26;100.00;99795.27;109454;1251;74712;-59
2023/11/21 04:32:18;;;;;;;5.00;2.60;;;;;;;-3.26;100.00;99802.41;109512;1251;67592;-59
2023/11/21 04:34:46;;;;;;;5.30;3.20;;;;;;;-3.27;100.00;99802.82;109457;1252;71544;-61
2023/11/21 04:37:13;;;;;;;4.20;2.50;;;;;;;-3.25;100.00;99805.73;109439;1253;59579;-59
2023/11/21 04:39:41;;;;;;;3.50;1.90;;;;;;;-3.24;100.00;99809.35;109456;1251;58911;-59
2023/11/21 04:42:08;;;;;;;4.80;2.60;;;;;;;-3.22;100.00;99814.19;109509;1251;74690;-59
2023/11/21 04:44:36;;;;;;;4.10;2.60;;;;;;;-3.23;100.00;99816.77;109476;1251;67397;-59
2023/11/21 04:47:04;;;;;;;3.90;2.10;;;;;;;-3.24;100.00;99814.95;109410;1251;71874;-59
2023/11/21 04:49:32;;;;;;;4.80;2.10;;;;;;;-3.25;100.00;99822.70;109424;1251;59754;-59
2023/11/21 04:52:01;;;;;;;4.50;2.50;;;;;;;-3.26;100.00;99824.30;109509;1251;60126;-59
2023/11/21 04:54:30;;;;;;;4.50;3.00;;;;;;;-3.29;100.00;99826.86;109456;1251;74630;-59
2023/11/21 04:56:58;;;;;;;5.40;2.90;;;;;;;-3.31;100.00;99829.09;109474;1252;65531;-59
2023/11/21 04:59:27;;;;;;;6.00;2.90;;;;;;;-3.34;100.00;99832.47;109464;1253;71434;-59
2023/11/21 05:01:54;;;;;;;7.70;4.10;;;;;;;-3.37;100.00;99829.80;109442;1252;59000;-59
2023/11/21 05:04:22;;;;;;;107.10;31.70;;;;;;;-3.41;100.00;99831.98;109507;1251;60059;-59
2023/11/21 05:06:50;;;;;;;90.60;26.70;;;;;;;-3.43;100.00;99830.09;109418;1254;74916;-59
2023/11/21 05:09:17;;;;;;;126.40;57.30;;;;;;;-3.44;100.00;99832.02;109523;1251;65937;-59
2023/11/21 05:11:45;;;;;;;50.60;24.70;;;;;;;-3.46;100.00;99838.91;109497;1251;72761;-59
2023/11/21 05:14:14;;;;;;;8.90;5.10;;;;;;;-3.46;100.00;99843.33;109482;1251;59469;-59
2023/11/21 05:16:42;;;;;;;5.30;3.10;;;;;;;-3.50;100.00;99846.99;109451;1254;59056;-58
2023/11/21 05:19:10;;;;;;;13.40;8.60;;;;;;;-3.54;100.00;99856.27;109489;1251;74692;-59
2023/11/21 05:21:37;;;;;;;10.50;5.20;;;;;;;-3.57;100.00;99856.35;109476;1251;66976;-58
2023/11/21 05:24:05;;;;;;;6.80;4.00;;;;;;;-3.59;100.00;99864.10;109495;1251;72697;-59
2023/11/21 05:26:33;;;;;;;8.10;4.60;;;;;;;-3.60;100.00;99866.86;109416;1251;59496;-58
2023/11/21 05:29:00;;;;;;;6.10;4.30;;;;;;;-3.60;100.00;99870.09;109453;1253;59044;-58
2023/11/21 05:31:28;;;;;;;6.60;3.50;;;;;;;-3.55;100.00;99872.52;109502;1251;74620;-58
2023/11/21 05:33:56;;;;;;;5.30;2.90;;;;;;;-3.52;100.00;99877.55;109468;1251;67213;-59
2023/11/21 05:36:24;;;;;;;5.20;3.10;;;;;;;-3.52;100.00;99883.16;109379;1253;72772;-58
2023/11/21 05:38:52;;;;;;;5.90;3.50;;;;;;;-3.51;100.00;99882.56;109480;1253;60202;-58
2023/11/21 05:41:19;;;;;;;5.00;2.90;;;;;;;-3.49;100.00;99882.41;109458;1251;59158;-58
2023/11/21 05:43:47;;;;;;;5.40;3.00;;;;;;;-3.45;100.00;99884.37;109470;1251;73453;-58
2023/11/21 05:46:15;;;;;;;6.00;3.70;;;;;;;-3.40;100.00;99881.16;109489;1251;67019;-59
2023/11/21 05:48:42;;;;;;;5.70;3.10;;;;;;;-3.35;100.00;99882.23;109485;1251;72742;-58
2023/11/21 05:51:12;;;;;;;5.70;3.50;;;;;;;-3.32;100.00;99885.52;109208;1251;310631;-58
2023/11/21 05:53:40;;;;;;;6.70;3.40;;;;;;;-3.28;100.00;99889.15;109499;1251;59199;-58
2023/11/21 05:56:08;;;;;;;6.10;3.30;;;;;;;-3.19;100.00;99889.80;109429;1251;74761;-59
2023/11/21 05:58:35;;;;;;;6.20;4.00;;;;;;;-3.10;100.00;99888.84;109474;1252;65805;-58
2023/11/21 06:01:07;;;;;;;6.10;3.90;;;;;;;-3.06;100.00;99891.76;109489;1251;72733;-58
2023/11/21 06:03:35;;;;;;;6.20;3.80;;;;;;;-3.03;100.00;99896.80;109471;1251;61149;-59
2023/11/21 06:06:04;;;;;;;6.20;4.30;;;;;;;-2.97;100.00;99900.86;109512;1251;59049;-60
2023/11/21 06:08:31;;;;;;;5.80;3.70;;;;;;;-2.93;100.00;99904.17;109410;1254;74961;-59
2023/11/21 06:10:59;;;;;;;6.90;3.70;;;;;;;-2.88;100.00;99899.08;109475;1252;66922;-58
2023/11/21 06:13:27;;;;;;;5.00;3.50;;;;;;;-2.83;100.00;99898.17;109541;1253;72832;-58
2023/11/21 06:15:55;;;;;;;5.70;3.60;;;;;;;-2.74;100.00;99899.93;109462;1251;61415;-58
2023/11/21 06:18:23;;;;;;;5.40;3.40;;;;;;;-2.71;100.00;99902.73;109460;1251;60248;-58
2023/11/21 06:20:53;;;;;;;6.40;4.20;;;;;;;-2.67;100.00;99902.05;109467;1254;73442;-59
2023/11/21 06:23:20;;;;;;;8.30;5.10;;;;;;;-2.64;100.00;99907.75;109524;1252;65657;-58
2023/11/21 06:25:48;;;;;;;6.20;4.00;;;;;;;-2.58;100.00;99916.20;109474;1251;72901;-58
2023/11/21 06:28:17;;;;;;;7.20;4.40;;;;;;;-2.54;100.00;99919.63;109430;1251;58951;-58
2023/11/21 06:30:45;;;;;;;8.10;4.80;;;;;;;-2.52;100.00;99924.10;109482;1251;58948;-58
2023/11/21 06:33:13;;;;;;;7.80;5.00;;;;;;;-2.46;100.00;99932.52;109509;1251;73199;-58
2023/11/21 06:35:41;;;;;;;7.10;4.60;;;;;;;-2.35;100.00;99935.67;109526;1251;65657;-59
2023/11/21 06:38:09;;;;;;;7.70;4.30;;;;;;;-2.27;100.00;99941.38;109405;1252;71469;-59
2023/11/21 06:40:36;;;;;;;6.90;3.90;;;;;;;-2.16;100.00;99933.33;109470;1251;58984;-58
2023/11/21 06:43:06;;;;;;;7.00;4.70;;;;;;;-2.07;100.00;99933.48;109477;1251;60148;-58
2023/11/21 06:45:34;;;;;;;6.40;3.80;;;;;;;-2.02;100.00;99932.09;109481;1251;73466;-58
2023/11/21 06:48:02;;;;;;;7.60;4.60;;;;;;;-1.95;100.00;99935.50;109392;1251;65639;-59
2023/11/21 06:50:30;;;;;;;7.40;4.40;;;;;;;-1.91;100.00;99941.86;109476;1251;71728;-59
2023/11/21 06:52:57;;;;;;;8.20;5.00;;;;;;;-1.88;100.00;99940.79;109469;1253;59356;-58
2023/11/21 06:55:25;;;;;;;7.50;5.00;;;;;;;-1.85;100.00;99936.65;109423;1251;59096;-59
2023/11/21 06:57:53;;;;;;;7.00;4.90;;;;;;;-1.75;100.00;99942.77;109515;1251;74786;-58
2023/11/21 07:00:20;;;;;;;6.40;4.40;;;;;;;-1.66;100.00;99940.94;109455;1256;66900;-59
2023/11/21 07:02:49;;;;;;;7.50;4.30;;;;;;;-1.61;100.00;99939.83;109445;1251;72765;-58
2023/11/21 07:05:20;;;;;;;6.40;4.10;;;;;;;-1.55;100.00;99941.61;109406;1251;59406;-58
2023/11/21 07:07:49;;;;;;;9.10;5.70;;;;;;;-1.52;100.00;99938.18;109408;1251;59075;-58
2023/11/21 07:10:17;;;;;;;8.70;5.60;;;;;;;-1.53;100.00;99930.55;109388;1251;74566;-58
2023/11/21 07:12:44;;;;;;;8.90;5.70;;;;;;;-1.56;100.00;99934.06;109310;1253;66562;-58
2023/11/21 07:15:12;;;;;;;7.40;5.70;;;;;;;-1.65;100.00;99928.95;109460;1251;72835;-58
2023/11/21 07:17:40;;;;;;;6.70;4.90;;;;;;;-1.75;100.00;99932.90;109413;1252;59301;-58
2023/11/21 07:20:08;;;;;;;8.40;5.60;;;;;;;-1.76;100.00;99938.35;109378;1251;58930;-60
2023/11/21 07:22:36;;;;;;;9.50;5.70;;;;;;;-1.68;100.00;99944.99;109439;1251;73468;-58
2023/11/21 07:25:04;;;;;;;8.80;5.80;;;;;;;-1.57;100.00;99945.39;109429;1252;67573;-58
2023/11/21 07:27:33;;;;;;;10.80;6.00;;;;;;;-1.51;100.00;99949.66;109440;1251;71649;-58
2023/11/21 07:30:04;;;;;;;7.60;5.30;;;;;;;-1.45;100.00;99950.62;109360;1251;61055;-59
2023/11/21 07:32:32;;;;;;;8.90;6.00;;;;;;;-1.39;100.00;99953.56;109467;1252;60153;-58
2023/11/21 07:35:01;;;;;;;7.60;5.40;;;;;;;-1.37;100.00;99956.14;109459;1251;74654;-58
2023/11/21 07:37:29;;;;;;;8.40;6.10;;;;;;;-1.39;100.00;99959.33;109485;1251;66947;-58
2023/11/21 07:39:56;;;;;;;17.20;11.10;;;;;;;-1.38;100.00;99957.08;109447;1252;72719;-59
2023/11/21 07:42:26;;;;;;;12.60;8.40;;;;;;;-1.31;100.00;99959.59;109462;1251;60902;-58
2023/11/21 07:44:53;;;;;;;53.50;34.40;;;;;;;-1.20;100.00;99962.91;109430;1251;59358;-58
2023/11/21 07:47:21;;;;;;;61.80;35.70;;;;;;;-1.17;100.00;99956.06;109413;1251;73471;-58
2023/11/21 07:49:49;;;;;;;22.20;14.70;;;;;;;-1.18;100.00;99957.84;109503;1251;66127;-59
2023/11/21 07:52:17;;;;;;;14.10;9.10;;;;;;;-1.15;100.00;99956.08;109499;1250;72715;-58
2023/11/21 07:54:44;;;;;;;16.50;8.40;;;;;;;-1.14;100.00;99953.08;109453;1253;59578;-58
2023/11/21 07:57:13;;;;;;;26.00;15.30;;;;;;;-1.14;100.00;99950.35;109479;1251;59056;-58
2023/11/21 07:59:41;;;;;;;13.20;8.80;;;;;;;-1.11;100.00;99946.56;109410;1256;74704;-59
2023/11/21 08:02:08;;;;;;;13.00;7.80;;;;;;;-1.06;100.00;99941.55;109447;1251;66077;-58
2023/11/21 08:04:36;;;;;;;9.20;6.70;;;;;;;-1.04;100.00;99942.04;109448;1253;72736;-59
2023/11/21 08:07:04;;;;;;;9.40;6.50;;;;;;;-1.01;100.00;99937.25;109429;1254;59389;-58
2023/11/21 08:09:32;;;;;;;8.90;6.00;;;;;;;-1.05;100.00;99929.70;109508;1251;62972;-59
2023/11/21 08:12:02;;;;;;;7.90;6.00;;;;;;;-1.09;100.00;99928.95;109489;1251;74634;-58
2023/11/21 08:14:29;;;;;;;14.60;7.60;;;;;;;-1.11;100.00;99928.29;109447;1251;66944;-58
2023/11/21 08:16:57;;;;;;;11.10;7.00;;;;;;;-1.11;100.00;99926.54;109452;1252;73578;-58
2023/11/21 08:19:25;;;;;;;10.30;7.10;;;;;;;-1.14;100.00;99923.39;109383;1251;60375;-59
2023/11/21 08:21:54;;;;;;;11.80;7.50;;;;;;;-1.12;100.00;99917.33;109445;1251;59367;-58
2023/11/21 08:24:22;;;;;;;9.30;6.30;;;;;;;-1.10;100.00;99923.09;109462;1251;74784;-58
2023/11/21 08:26:50;;;;;;;9.90;6.70;;;;;;;-1.10;100.00;99915.11;109465;1251;66950;-58
2023/11/21 08:29:18;;;;;;;9.90;7.00;;;;;;;-1.10;100.00;99917.78;109419;1252;73924;-60
2023/11/21 08:31:48;;;;;;;8.90;5.90;;;;;;;-1.07;100.00;99922.20;109414;1253;59317;-58
2023/11/21 08:34:16;;;;;;;7.60;5.70;;;;;;;-1.10;100.00;99918.98;109518;1251;60119;-58
2023/11/21 08:36:44;;;;;;;8.80;5.40;;;;;;;-1.12;100.00;99922.25;109429;1251;74739;-58
2023/11/21 08:39:13;;;;;;;9.30;6.30;;;;;;;-1.13;100.00;99916.30;109416;1251;65832;-59
2023/11/21 08:41:41;;;;;;;9.10;5.80;;;;;;;-1.15;100.00;99917.52;109412;1253;72693;-59
2023/11/21 08:44:09;;;;;;;9.70;6.00;;;;;;;-1.14;100.00;99912.66;109395;1252;60971;-59
2023/11/21 08:46:38;;;;;;;7.70;5.30;;;;;;;-1.09;100.00;99909.51;109458;1251;60195;-58
2023/11/21 08:49:06;;;;;;;8.20;5.80;;;;;;;-1.05;100.00;99905.34;109390;1251;76597;-59
2023/11/21 08:51:33;;;;;;;8.10;5.40;;;;;;;-1.11;100.00;99900.86;109411;1251;68154;-58
2023/11/21 08:54:04;;;;;;;8.30;6.00;;;;;;;-1.14;100.00;99904.50;109487;1251;71414;-58
2023/11/21 08:56:32;;;;;;;10.20;6.00;;;;;;;-1.07;100.00;99903.81;109374;1251;61961;-58
2023/11/21 08:59:02;;;;;;;9.20;6.60;;;;;;;-0.91;100.00;99905.23;109398;1251;60115;-58
2023/11/21 09:01:31;;;;;;;9.10;6.30;;;;;;;-0.84;100.00;99900.62;109481;1251;73609;-58
2023/11/21 09:03:59;;;;;;;9.10;6.50;;;;;;;-0.77;100.00;99898.70;109449;1251;65630;-58
2023/11/21 09:06:26;;;;;;;8.80;6.10;;;;;;;-0.72;100.00;99893.60;109397;1251;72751;-58
2023/11/21 09:08:54;;;;;;;12.10;6.90;;;;;;;-0.63;100.00;99893.02;109369;1251;60957;-59
2023/11/21 09:11:22;;;;;;;9.40;5.80;;;;;;;-0.52;100.00;99893.85;109442;1251;62131;-58
2023/11/21 09:13:51;;;;;;;12.10;8.20;;;;;;;-0.47;100.00;99894.11;109411;1251;77334;-60
2023/11/21 09:16:18;;;;;;;10.90;5.90;;;;;;;-0.45;100.00;99896.21;109413;1250;69276;-59
2023/11/21 09:18:46;;;;;;;7.30;5.60;;;;;;;-0.42;100.00;99899.36;109334;1251;72871;-59
2023/11/21 09:21:14;;;;;;;7.20;5.20;;;;;;;-0.40;100.00;99897.04;109423;1251;59024;-58
2023/11/21 09:23:44;;;;;;;14.00;6.50;;;;;;;-0.42;100.00;99899.25;109423;1251;61620;-58
2023/11/21 09:26:12;;;;;;;9.20;6.00;;;;;;;-0.46;100.00;99903.45;109454;1255;76812;-59
2023/11/21 09:28:42;;;;;;;10.00;5.90;;;;;;;-0.49;100.00;99907.26;109335;1256;69674;-59
2023/11/21 09:31:10;;;;;;;10.60;7.40;;;;;;;-0.59;100.00;99913.70;109421;1251;74212;-59
2023/11/21 09:33:38;;;;;;;13.40;8.20;;;;;;;-0.76;100.00;99914.48;109459;1253;62475;-59
2023/11/21 09:36:06;;;;;;;32.30;20.40;;;;;;;-0.86;100.00;99924.17;109375;1251;58898;-59
2023/11/21 09:38:35;;;;;;;13.60;9.50;;;;;;;-0.91;100.00;99921.67;109385;1252;75759;-60
2023/11/21 09:41:03;;;;;;;19.20;11.10;;;;;;;-0.98;100.00;99924.78;109435;1251;65680;-59
2023/11/21 09:43:30;;;;;;;12.30;8.20;;;;;;;-1.05;100.00;99929.65;109428;1251;74358;-59
2023/11/21 09:46:00;;;;;;;12.10;7.50;;;;;;;-1.08;100.00;99934.90;109267;1251;64315;-61
2023/11/21 09:48:29;;;;;;;14.20;8.60;;;;;;;-1.08;100.00;99936.21;109397;1251;58933;-59
2023/11/21 09:50:57;;;;;;;12.20;7.60;;;;;;;-1.09;100.00;99936.52;109167;1251;75180;-59
2023/11/21 09:53:24;;;;;;;11.20;7.80;;;;;;;-1.18;100.00;99939.40;109360;1251;66888;-58
2023/11/21 09:55:53;;;;;;;18.40;9.80;;;;;;;-1.25;100.00;99942.58;109263;1251;75130;-58
2023/11/21 09:58:22;;;;;;;16.50;10.40;;;;;;;-1.29;100.00;99945.00;109439;1251;62056;-60
2023/11/21 10:00:56;;;;;;;25.90;15.60;;;;;;;-1.37;100.00;99948.14;109415;1251;60092;-59
2023/11/21 10:03:24;;;;;;;23.40;13.30;;;;;;;-1.38;100.00;99951.59;109484;1251;76772;-59
2023/11/21 10:05:52;;;;;;;17.70;10.90;;;;;;;-1.36;100.00;99955.74;109433;1251;69097;-59
2023/11/21 10:08:20;;;;;;;15.10;10.90;;;;;;;-1.33;100.00;99953.64;109218;1251;75519;-60
2023/11/21 10:10:49;;;;;;;16.10;11.40;;;;;;;-1.33;100.00;99957.39;109229;1251;61591;-59
2023/11/21 10:13:17;;;;;;;15.00;10.20;;;;;;;-1.38;100.00;99963.69;109449;1251;63042;-59
2023/11/21 10:15:49;;;;;;;14.50;9.30;;;;;;;-1.47;100.00;99965.39;109370;1251;73463;-59
2023/11/21 10:18:17;;;;;;;17.80;10.40;;;;;;;-1.55;100.00;99971.26;109277;1254;69657;-60
2023/11/21 10:20:51;;;;;;;16.30;10.60;;;;;;;-1.62;100.00;99970.11;109368;1251;73788;-59
2023/11/21 10:23:22;;;;;;;12.60;7.80;;;;;;;-1.75;100.00;99976.80;109461;1251;61939;-59
2023/11/21 10:25:52;;;;;;;12.70;8.50;;;;;;;-1.82;100.00;99980.23;109481;1251;62730;-59
2023/11/21 10:28:20;;;;;;;14.30;9.30;;;;;;;-1.87;100.00;99980.77;109369;1251;74942;-61
2023/11/21 10:30:49;;;;;;;12.00;7.70;;;;;;;-1.94;100.00;99989.30;109302;1251;65957;-59
2023/11/21 10:33:16;;;;;;;14.90;8.90;;;;;;;-2.02;100.00;99993.37;109400;1251;74822;-59
2023/11/21 10:35:51;;;;;;;10.30;7.10;;;;;;;-2.05;100.00;99989.67;109433;1251;61548;-59
2023/11/21 10:38:22;;;;;;;12.60;7.90;;;;;;;-2.04;100.00;99996.96;109399;1251;59000;-60
2023/11/21 10:40:50;;;;;;;11.50;7.20;;;;;;;-2.04;100.00;99998.84;109390;1251;76763;-59
2023/11/21 10:43:18;;;;;;;12.40;7.80;;;;;;;-2.03;100.00;99999.07;109414;1251;70834;-59
2023/11/21 10:45:46;;;;;;;11.70;6.70;;;;;;;-2.05;100.00;99998.91;109406;1251;74824;-59
2023/11/21 10:48:17;;;;;;;12.30;7.50;;;;;;;-2.11;100.00;100002.73;109328;1252;61916;-59
2023/11/21 10:50:46;;;;;;;11.30;7.30;;;;;;;-2.05;100.00;100006.23;109420;1254;62185;-59
2023/11/21 10:53:13;;;;;;;13.00;6.80;;;;;;;-2.00;100.00;100007.03;109471;1251;77362;-59
2023/11/21 10:55:43;;;;;;;10.70;6.30;;;;;;;-1.97;100.00;100012.64;109454;1251;65853;-59
2023/11/21 10:58:11;;;;;;;20.00;12.80;;;;;;;-1.95;100.00;100012.02;109350;1251;73632;-59
2023/11/21 11:00:40;;;;;;;11.10;7.00;;;;;;;-1.93;100.00;100017.14;109216;1251;61583;-59
2023/11/21 11:03:13;;;;;;;9.20;5.70;;;;;;;-1.91;100.00;100016.09;109303;1251;60029;-59
2023/11/21 11:05:51;;;;;;;8.60;5.50;;;;;;;-1.89;100.00;100015.15;109362;1251;73434;-59
2023/11/21 11:08:26;;;;;;;9.70;6.10;;;;;;;-1.90;100.00;100013.52;109440;1251;69313;-60
2023/11/21 11:10:55;;;;;;;11.50;7.40;;;;;;;-1.93;100.00;100014.03;109303;1254;74758;-58
2023/11/21 11:13:23;;;;;;;10.30;7.50;;;;;;;-1.93;100.00;100017.30;109435;1253;63974;-60
2023/11/21 11:15:59;;;;;;;10.10;7.00;;;;;;;-1.92;100.00;100013.64;109381;1251;60938;-59
2023/11/21 11:18:30;;;;;;;13.50;7.40;;;;;;;-1.90;100.00;100014.34;109374;1251;76788;-59